createdAt,value
2018-07-25T00:01:15.571Z,94561.97
2018-07-25T00:03:44.211Z,94561.58
2018-07-25T00:06:12.894Z,94555.71
2018-07-25T00:08:41.546Z,94549.88
2018-07-25T00:11:10.175Z,94551.02
2018-07-25T00:13:38.863Z,94544.03
2018-07-25T00:16:07.763Z,94549.16
2018-07-25T00:18:36.455Z,94549.95
2018-07-25T00:21:05.186Z,94546.48
2018-07-25T00:23:33.852Z,94551.95
2018-07-25T00:26:02.472Z,94560.31
2018-07-25T00:28:31.112Z,94556.41
2018-07-25T00:30:59.791Z,94552.08
2018-07-25T00:33:28.430Z,94546.77
2018-07-25T00:35:57.359Z,94551.66
2018-07-25T00:38:25.947Z,94553.03
2018-07-25T00:40:54.570Z,94557.57
2018-07-25T00:43:23.196Z,94561.88
2018-07-25T00:45:51.805Z,94560.72
2018-07-25T00:48:20.729Z,94557.94
2018-07-25T00:50:49.430Z,94558.16
2018-07-25T00:53:18.083Z,94549.16
2018-07-25T00:55:46.788Z,94550.52
2018-07-25T00:58:15.378Z,94549.92
2018-07-25T01:00:43.989Z,94553.05
2018-07-25T01:03:12.822Z,94547.58
2018-07-25T01:05:41.462Z,94544.55
2018-07-25T01:08:10.156Z,94547.28
2018-07-25T01:10:42.755Z,94547.22
2018-07-25T01:13:12.346Z,94548.14
2018-07-25T01:15:41.259Z,94554.62
2018-07-25T01:18:09.952Z,94556.35
2018-07-25T01:20:38.681Z,94555.62
2018-07-25T01:23:07.512Z,94558.14
2018-07-25T01:25:36.219Z,94555.40
2018-07-25T01:28:04.965Z,94552.32
2018-07-25T01:30:33.578Z,94554.47
2018-07-25T01:33:02.419Z,94549.92
2018-07-25T01:35:31.037Z,94541.16
2018-07-25T01:38:00.757Z,94542.94
2018-07-25T01:40:29.465Z,94551.95
2018-07-25T01:42:58.182Z,94545.75
2018-07-25T01:45:26.855Z,94545.55
2018-07-25T01:47:55.474Z,94544.38
2018-07-25T01:50:24.086Z,94547.19
2018-07-25T01:52:53.117Z,94546.63
2018-07-25T01:55:21.773Z,94546.77
2018-07-25T01:57:50.395Z,94553.05
2018-07-25T02:00:19.295Z,94551.09
2018-07-25T02:02:47.966Z,94551.33
2018-07-25T02:05:16.610Z,94554.05
2018-07-25T02:07:45.894Z,94547.47
2018-07-25T02:10:14.515Z,94548.47
2018-07-25T02:12:43.160Z,94556.08
2018-07-25T02:15:11.831Z,94554.52
2018-07-25T02:17:40.559Z,94559.39
2018-07-25T02:20:09.499Z,94562.42
2018-07-25T02:22:38.126Z,94559.27
2018-07-25T02:25:06.815Z,94557.15
2018-07-25T02:27:35.694Z,94560.27
2018-07-25T02:30:05.636Z,94553.84
2018-07-25T02:32:34.290Z,94556.58
2018-07-25T02:35:03.396Z,94565.00
2018-07-25T02:37:32.343Z,94567.10
2018-07-25T02:40:00.995Z,94571.77
2018-07-25T02:42:29.731Z,94572.00
2018-07-25T02:44:58.369Z,94570.84
2018-07-25T02:47:27.421Z,94572.40
2018-07-25T02:49:56.067Z,94569.84
2018-07-25T02:52:24.976Z,94565.73
2018-07-25T02:54:53.599Z,94568.84
2018-07-25T02:57:22.489Z,94570.84
2018-07-25T02:59:51.092Z,94538.41
2018-07-25T03:02:19.750Z,94571.25
2018-07-25T03:04:48.712Z,94574.16
2018-07-25T03:07:17.669Z,94566.73
2018-07-25T03:09:46.600Z,94571.03
2018-07-25T03:12:15.660Z,94575.94
2018-07-25T03:14:44.299Z,94574.52
2018-07-25T03:17:13.287Z,94498.75
2018-07-25T03:19:41.945Z,94567.67
2018-07-25T03:22:10.546Z,94564.14
2018-07-25T03:24:39.231Z,94569.41
2018-07-25T03:27:08.218Z,94578.17
2018-07-25T03:29:36.867Z,94578.34
2018-07-25T03:32:05.499Z,94580.72
2018-07-25T03:34:34.148Z,94590.12
2018-07-25T03:37:02.783Z,94386.00
2018-07-25T03:39:31.459Z,94590.48
2018-07-25T03:42:00.607Z,94593.80
2018-07-25T03:44:29.218Z,94591.20
2018-07-25T03:46:57.972Z,94602.69
2018-07-25T03:49:26.838Z,94603.47
2018-07-25T03:51:55.474Z,94605.44
2018-07-25T03:54:24.403Z,94608.73
2018-07-25T03:56:53.067Z,94610.84
2018-07-25T03:59:21.729Z,94610.27
2018-07-25T04:01:50.714Z,94614.79
2018-07-25T04:04:19.637Z,94615.38
2018-07-25T04:06:48.341Z,94610.64
2018-07-25T04:09:17.029Z,94613.58
2018-07-25T04:11:46.096Z,94607.52
2018-07-25T04:14:14.731Z,94614.38
2018-07-25T04:16:43.686Z,94609.67
2018-07-25T04:19:12.599Z,94612.94
2018-07-25T04:21:41.246Z,94624.72
2018-07-25T04:24:09.879Z,94624.94
2018-07-25T04:26:38.543Z,94620.98
2018-07-25T04:29:07.175Z,94627.61
2018-07-25T04:31:36.236Z,94622.07
2018-07-25T04:34:04.940Z,94618.27
2018-07-25T04:36:33.894Z,94624.05
2018-07-25T04:39:02.563Z,94625.19
2018-07-25T04:41:31.527Z,94623.40
2018-07-25T04:44:00.580Z,94624.16
2018-07-25T04:46:29.216Z,94623.11
2018-07-25T04:48:58.477Z,94621.01
2018-07-25T04:51:27.375Z,94625.06
2018-07-25T04:53:56.016Z,94619.20
2018-07-25T04:56:24.705Z,94626.20
2018-07-25T04:58:53.300Z,94626.05
2018-07-25T05:01:21.950Z,94628.28
2018-07-25T05:03:50.574Z,94633.98
2018-07-25T05:06:19.252Z,94630.44
2018-07-25T05:08:47.906Z,94632.59
2018-07-25T05:11:16.891Z,94637.19
2018-07-25T05:13:45.539Z,94632.31
2018-07-25T05:16:14.177Z,94637.03
2018-07-25T05:21:16.623Z,94637.19
2018-07-25T05:23:45.248Z,94637.64
2018-07-25T05:26:13.855Z,94644.79
2018-07-25T05:28:42.512Z,94641.68
2018-07-25T05:31:11.155Z,94638.61
2018-07-25T05:33:39.848Z,94636.81
2018-07-25T05:36:08.501Z,94636.21
2018-07-25T05:38:37.175Z,94633.02
2018-07-25T05:41:05.843Z,94630.00
2018-07-25T05:43:34.454Z,94636.80
2018-07-25T05:46:03.412Z,94640.52
2018-07-25T05:48:32.084Z,94633.10
2018-07-25T05:51:00.971Z,94631.46
2018-07-25T05:53:29.629Z,94650.77
2018-07-25T05:55:58.288Z,94652.36
2018-07-25T05:58:26.928Z,94604.00
2018-07-25T06:00:55.624Z,94662.69
2018-07-25T06:03:24.300Z,94662.84
2018-07-25T06:05:53.060Z,94661.09
2018-07-25T06:08:21.757Z,94667.13
2018-07-25T06:10:50.490Z,94665.53
2018-07-25T06:13:19.215Z,94661.58
2018-07-25T06:15:47.882Z,94666.21
2018-07-25T06:18:16.535Z,94667.64
2018-07-25T06:20:45.232Z,94671.36
2018-07-25T06:23:13.916Z,94671.83
2018-07-25T06:25:42.575Z,94671.64
2018-07-25T06:28:11.196Z,94674.29
2018-07-25T06:30:39.948Z,94670.38
2018-07-25T06:33:08.607Z,94670.08
2018-07-25T06:35:37.223Z,94680.87
2018-07-25T06:38:05.959Z,94674.81
2018-07-25T06:40:34.636Z,94673.36
2018-07-25T06:43:03.332Z,94671.03
2018-07-25T06:45:32.064Z,94674.13
2018-07-25T06:48:00.874Z,94674.92
2018-07-25T06:50:29.485Z,94676.83
2018-07-25T06:52:58.210Z,94684.84
2018-07-25T06:55:26.884Z,94683.17
2018-07-25T06:57:55.552Z,94692.21
2018-07-25T07:00:24.328Z,94685.27
2018-07-25T07:02:53.028Z,94686.89
2018-07-25T07:05:21.654Z,94689.63
2018-07-25T07:07:50.384Z,94690.28
2018-07-25T07:10:19.051Z,94690.16
2018-07-25T07:12:47.690Z,94687.87
2018-07-25T07:15:16.411Z,94693.37
2018-07-25T07:17:45.084Z,94701.62
2018-07-25T07:20:13.795Z,94684.45
2018-07-25T07:22:42.470Z,94695.70
2018-07-25T07:25:11.430Z,94694.29
2018-07-25T07:27:40.233Z,94701.67
2018-07-25T07:30:09.120Z,94702.38
2018-07-25T07:32:38.035Z,94689.27
2018-07-25T07:35:06.729Z,94699.52
2018-07-25T07:37:35.470Z,94698.02
2018-07-25T07:40:04.238Z,94688.33
2018-07-25T07:42:32.919Z,94689.28
2018-07-25T07:45:01.621Z,94693.84
2018-07-25T07:47:30.342Z,94699.99
2018-07-25T07:49:59.115Z,94695.00
2018-07-25T07:52:28.170Z,94691.83
2018-07-25T07:54:57.096Z,94697.75
2018-07-25T07:57:25.985Z,94691.88
2018-07-25T07:59:55.002Z,94691.19
2018-07-25T08:02:23.830Z,94698.75
2018-07-25T08:04:52.552Z,94697.73
2018-07-25T08:07:21.239Z,94700.38
2018-07-25T08:09:49.943Z,94706.89
2018-07-25T08:12:18.594Z,94709.08
2018-07-25T08:14:47.360Z,94708.73
2018-07-25T08:17:16.384Z,94714.59
2018-07-25T08:19:45.128Z,94713.30
2018-07-25T08:22:13.833Z,94709.52
2018-07-25T08:24:42.504Z,94706.47
2018-07-25T08:27:11.170Z,94715.79
2018-07-25T08:29:39.818Z,94720.25
2018-07-25T08:32:08.451Z,94713.88
2018-07-25T08:34:37.440Z,94722.28
2018-07-25T08:37:06.061Z,94722.18
2018-07-25T08:39:34.773Z,94719.77
2018-07-25T08:42:03.875Z,94721.48
2018-07-25T08:44:32.524Z,94723.41
2018-07-25T08:47:01.149Z,94720.84
2018-07-25T08:49:29.758Z,94715.14
2018-07-25T08:51:58.390Z,94718.64
2018-07-25T08:54:27.120Z,94718.44
2018-07-25T08:56:55.771Z,94720.20
2018-07-25T08:59:24.448Z,94723.14
2018-07-25T09:01:53.165Z,94722.25
2018-07-25T09:04:21.847Z,94720.36
2018-07-25T09:06:50.523Z,94726.52
2018-07-25T09:09:19.174Z,94726.30
2018-07-25T09:11:47.897Z,94719.48
2018-07-25T09:14:16.551Z,94725.63
2018-07-25T09:16:45.317Z,94722.22
2018-07-25T09:19:14.074Z,94728.22
2018-07-25T09:21:42.722Z,94732.06
2018-07-25T09:24:11.449Z,94732.31
2018-07-25T09:26:40.181Z,94729.16
2018-07-25T09:29:08.870Z,94726.72
2018-07-25T09:31:37.663Z,94720.75
2018-07-25T09:34:06.457Z,94727.30
2018-07-25T09:36:35.198Z,94729.45
2018-07-25T09:39:05.344Z,94722.77
2018-07-25T09:41:34.078Z,94733.38
2018-07-25T09:44:03.104Z,94729.59
2018-07-25T09:46:32.091Z,94724.54
2018-07-25T09:49:01.429Z,94727.75
2018-07-25T09:51:30.255Z,94727.56
2018-07-25T09:53:58.907Z,94727.39
2018-07-25T09:56:27.603Z,94716.80
2018-07-25T09:58:56.288Z,94711.81
2018-07-25T10:01:24.997Z,94704.32
2018-07-25T10:03:53.728Z,94701.64
2018-07-25T10:06:22.415Z,94696.68
2018-07-25T10:08:51.383Z,94702.16
2018-07-25T10:11:22.229Z,94696.44
2018-07-25T10:13:51.364Z,94694.78
2018-07-25T10:16:20.069Z,94688.90
2018-07-25T10:18:49.083Z,94684.41
2018-07-25T10:21:17.751Z,94697.34
2018-07-25T10:23:46.499Z,94695.00
2018-07-25T10:26:15.320Z,94689.83
2018-07-25T10:28:44.095Z,94693.55
2018-07-25T10:31:12.795Z,94688.00
2018-07-25T10:33:41.611Z,94670.14
2018-07-25T10:36:10.302Z,94696.00
2018-07-25T10:38:39.254Z,94692.26
2018-07-25T10:41:08.287Z,94694.17
2018-07-25T10:43:37.008Z,94696.57
2018-07-25T10:46:05.772Z,94702.01
2018-07-25T10:48:34.468Z,94705.48
2018-07-25T10:51:03.334Z,94702.14
2018-07-25T10:53:31.994Z,94707.34
2018-07-25T10:56:00.965Z,94705.86
2018-07-25T10:58:29.615Z,94702.14
2018-07-25T11:00:58.251Z,94693.14
2018-07-25T11:03:27.066Z,94697.29
2018-07-25T11:05:55.796Z,94693.05
2018-07-25T11:08:24.471Z,94684.59
2018-07-25T11:10:53.131Z,94687.05
2018-07-25T11:13:21.839Z,94689.52
2018-07-25T11:15:50.644Z,94687.47
2018-07-25T11:18:19.342Z,94681.06
2018-07-25T11:20:49.012Z,94679.63
2018-07-25T11:23:17.759Z,94680.45
2018-07-25T11:25:46.730Z,94678.08
2018-07-25T11:28:15.352Z,94699.94
2018-07-25T11:30:43.988Z,94679.75
2018-07-25T11:33:12.680Z,94697.09
2018-07-25T11:35:41.292Z,94706.76
2018-07-25T11:38:10.039Z,94706.11
2018-07-25T11:40:38.681Z,94703.27
2018-07-25T11:43:07.392Z,94699.94
2018-07-25T11:45:36.258Z,94701.36
2018-07-25T11:48:05.022Z,94700.39
2018-07-25T11:50:34.080Z,94703.19
2018-07-25T11:53:02.715Z,94698.53
2018-07-25T11:55:31.416Z,94685.78
2018-07-25T11:58:00.053Z,94679.78
2018-07-25T12:00:28.738Z,94686.70
2018-07-25T12:02:57.709Z,94683.91
2018-07-25T12:05:26.331Z,94682.01
2018-07-25T12:07:55.009Z,94678.75
2018-07-25T12:10:23.703Z,94677.89
2018-07-25T12:12:52.675Z,94666.34
2018-07-25T12:15:21.382Z,94673.11
2018-07-25T12:17:50.080Z,94675.97
2018-07-25T12:20:18.703Z,94671.61
2018-07-25T12:22:47.412Z,94673.59
2018-07-25T12:25:16.161Z,94675.88
2018-07-25T12:27:44.819Z,94671.36
2018-07-25T12:30:13.536Z,94668.13
2018-07-25T12:32:42.218Z,94667.27
2018-07-25T12:35:10.854Z,94670.91
2018-07-25T12:37:39.577Z,94670.55
2018-07-25T12:40:08.372Z,94673.05
2018-07-25T12:42:37.146Z,94671.77
2018-07-25T12:45:06.116Z,94663.95
2018-07-25T12:47:34.966Z,94655.19
2018-07-25T12:50:03.743Z,94667.86
2018-07-25T12:52:32.398Z,94662.75
2018-07-25T12:55:00.993Z,94657.93
2018-07-25T12:57:29.969Z,94656.97
2018-07-25T12:59:58.722Z,94656.94
2018-07-25T13:02:27.407Z,94649.52
2018-07-25T13:04:56.401Z,94644.60
2018-07-25T13:07:25.081Z,94635.42
2018-07-25T13:09:53.835Z,94638.24
2018-07-25T13:12:22.894Z,94641.73
2018-07-25T13:14:52.772Z,94646.83
2018-07-25T13:17:21.512Z,94642.05
2018-07-25T13:19:50.579Z,94641.52
2018-07-25T13:22:19.368Z,94643.82
2018-07-25T13:24:48.238Z,94615.28
2018-07-25T13:27:16.933Z,94638.03
2018-07-25T13:29:45.668Z,94645.16
2018-07-25T13:32:14.546Z,94640.70
2018-07-25T13:34:43.301Z,94641.79
2018-07-25T13:37:12.070Z,94636.83
2018-07-25T13:39:40.814Z,94643.00
2018-07-25T13:42:09.509Z,94641.76
2018-07-25T13:44:38.302Z,94638.96
2018-07-25T13:47:07.135Z,94636.23
2018-07-25T13:49:35.841Z,94633.02
2018-07-25T13:52:04.684Z,94630.00
2018-07-25T13:54:33.333Z,94623.78
2018-07-25T13:57:02.268Z,94625.12
2018-07-25T13:59:31.309Z,94619.48
2018-07-25T14:01:59.971Z,94626.27
2018-07-25T14:04:28.713Z,94619.86
2018-07-25T14:06:57.531Z,94620.28
2018-07-25T14:09:26.158Z,94619.96
2018-07-25T14:11:54.810Z,94623.78
2018-07-25T14:14:23.543Z,94619.96
2018-07-25T14:16:52.486Z,94611.42
2018-07-25T14:19:21.246Z,94604.22
2018-07-25T14:21:49.989Z,94611.21
2018-07-25T14:24:19.170Z,94613.30
2018-07-25T14:26:48.073Z,94613.61
2018-07-25T14:29:16.732Z,94613.19
2018-07-25T14:31:45.426Z,94614.78
2018-07-25T14:34:17.479Z,94618.62
2018-07-25T14:36:46.464Z,94624.52
2018-07-25T14:39:15.162Z,94623.12
2018-07-25T14:41:44.404Z,94626.92
2018-07-25T14:44:13.064Z,94624.84
2018-07-25T14:46:41.813Z,94627.37
2018-07-25T14:49:10.401Z,94639.77
2018-07-25T14:51:39.048Z,94637.00
2018-07-25T14:54:07.814Z,94638.92
2018-07-25T14:56:36.533Z,94645.28
2018-07-25T14:59:05.280Z,94638.89
2018-07-25T15:01:33.972Z,94646.52
2018-07-25T15:04:02.648Z,94648.07
2018-07-25T15:06:31.562Z,94650.17
2018-07-25T15:09:00.513Z,94647.41
2018-07-25T15:11:29.288Z,94658.13
2018-07-25T15:13:57.983Z,94650.73
2018-07-25T15:16:26.910Z,94649.69
2018-07-25T15:18:55.887Z,94642.80
2018-07-25T15:21:24.552Z,94645.67
2018-07-25T15:24:02.493Z,94647.56
2018-07-25T15:26:31.432Z,94640.66
2018-07-25T15:29:00.879Z,94645.00
2018-07-25T15:31:29.999Z,94640.69
2018-07-25T15:33:58.896Z,94647.43
2018-07-25T15:36:44.498Z,94652.78
2018-07-25T15:39:20.978Z,94652.62
2018-07-25T15:41:50.483Z,94657.23
2018-07-25T15:44:20.189Z,94656.70
2018-07-25T15:46:49.507Z,94651.64
2018-07-25T15:49:18.245Z,94656.70
2018-07-25T15:51:47.045Z,94663.33
2018-07-25T15:54:15.809Z,94661.42
2018-07-25T15:56:44.671Z,94660.80
2018-07-25T15:59:13.360Z,94664.72
2018-07-25T16:01:42.093Z,94658.59
2018-07-25T16:04:11.186Z,94657.22
2018-07-25T16:06:40.237Z,94653.67
2018-07-25T16:09:11.424Z,94648.61
2018-07-25T16:11:40.667Z,94653.63
2018-07-25T16:14:09.512Z,94649.70
2018-07-25T16:16:38.479Z,94647.66
2018-07-25T16:19:07.273Z,94656.51
2018-07-25T16:21:36.249Z,94662.62
2018-07-25T16:24:05.045Z,94666.16
2018-07-25T16:26:33.673Z,94674.47
2018-07-25T16:29:03.116Z,94684.94
2018-07-25T16:31:31.863Z,94691.06
2018-07-25T16:34:01.206Z,94692.46
2018-07-25T16:36:29.906Z,94696.58
2018-07-25T16:38:58.606Z,94687.48
2018-07-25T16:41:27.378Z,94687.30
2018-07-25T16:43:56.473Z,94677.86
2018-07-25T16:46:25.277Z,94687.81
2018-07-25T16:48:54.415Z,94695.28
2018-07-25T16:51:23.930Z,94682.19
2018-07-25T16:53:52.917Z,94699.38
2018-07-25T16:56:21.919Z,94705.08
2018-07-25T16:58:50.894Z,94713.68
2018-07-25T17:01:19.586Z,94707.64
2018-07-25T17:03:48.321Z,94710.39
2018-07-25T17:06:17.130Z,94718.48
2018-07-25T17:08:45.962Z,94721.88
2018-07-25T17:11:14.583Z,94731.03
2018-07-25T17:13:43.817Z,94723.62
2018-07-25T17:16:12.833Z,94723.22
2018-07-25T17:18:41.911Z,94729.63
2018-07-25T17:21:11.002Z,94736.86
2018-07-25T17:23:40.126Z,94732.73
2018-07-25T17:26:09.214Z,94733.95
2018-07-25T17:28:38.204Z,94734.53
2018-07-25T17:31:07.366Z,94739.55
2018-07-25T17:33:36.325Z,94732.09
2018-07-25T17:36:05.073Z,94749.17
2018-07-25T17:38:34.035Z,94751.21
2018-07-25T17:41:02.791Z,94756.27
2018-07-25T17:43:31.718Z,94762.60
2018-07-25T17:46:00.427Z,94773.90
2018-07-25T17:48:29.172Z,94781.59
2018-07-25T17:50:57.881Z,94775.62
2018-07-25T17:53:27.448Z,94783.16
2018-07-25T17:55:56.582Z,94777.47
2018-07-25T17:58:25.650Z,94786.80
2018-07-25T18:00:54.324Z,94775.50
2018-07-25T18:03:23.344Z,94780.31
2018-07-25T18:05:52.363Z,94776.42
2018-07-25T18:08:21.412Z,94781.44
2018-07-25T18:10:50.222Z,94787.22
2018-07-25T18:13:24.117Z,94787.02
2018-07-25T18:15:53.148Z,94781.17
2018-07-25T18:18:23.524Z,94781.41
2018-07-25T18:20:52.238Z,94780.81
2018-07-25T18:23:21.207Z,94776.02
2018-07-25T18:25:50.144Z,94783.07
2018-07-25T18:28:18.847Z,94785.84
2018-07-25T18:30:47.578Z,94786.27
2018-07-25T18:33:16.365Z,94790.78
2018-07-25T18:35:45.125Z,94782.52
2018-07-25T18:38:13.793Z,94785.88
2018-07-25T18:40:42.558Z,94795.78
2018-07-25T18:43:11.264Z,94803.36
2018-07-25T18:45:40.397Z,94805.70
2018-07-25T18:48:09.602Z,94817.50
2018-07-25T18:55:55.607Z,94806.42
2018-07-25T18:58:24.285Z,94815.86
2018-07-25T19:00:53.373Z,94822.74
2018-07-25T19:03:22.275Z,94827.84
2018-07-25T19:05:50.903Z,94827.28
2018-07-25T19:08:19.543Z,94833.19
2018-07-25T19:10:48.198Z,94832.77
2018-07-25T19:13:21.943Z,94836.30
2018-07-25T19:15:51.203Z,94845.28
2018-07-25T19:18:20.143Z,94840.08
2018-07-25T19:20:49.319Z,94841.02
2018-07-25T19:23:18.045Z,94836.52
2018-07-25T19:25:47.017Z,94843.02
2018-07-25T19:28:16.106Z,94841.89
2018-07-25T19:30:45.003Z,94605.95
2018-07-25T19:33:13.674Z,94830.24
2018-07-25T19:35:42.842Z,94822.88
2018-07-25T19:38:11.506Z,94822.31
2018-07-25T19:40:40.130Z,94816.27
2018-07-25T19:43:08.814Z,94820.44
2018-07-25T19:45:37.594Z,94823.20
2018-07-25T19:48:06.467Z,94819.51
2018-07-25T19:50:35.219Z,94819.53
2018-07-25T19:53:06.943Z,94816.84
2018-07-25T19:55:35.853Z,94809.06
2018-07-25T19:58:04.923Z,94814.78
2018-07-25T20:00:33.814Z,94811.52
2018-07-25T20:03:02.792Z,94808.59
2018-07-25T20:05:31.725Z,94805.89
2018-07-25T20:08:00.894Z,94804.16
2018-07-25T20:10:29.886Z,94628.88
2018-07-25T20:12:58.637Z,94791.11
2018-07-25T20:15:32.298Z,94790.17
2018-07-25T20:18:01.272Z,94802.92
2018-07-25T20:20:30.870Z,94795.92
2018-07-25T20:22:59.487Z,94798.05
2018-07-25T20:25:28.152Z,94800.60
2018-07-25T20:27:57.102Z,94812.34
2018-07-25T20:30:25.764Z,94818.23
2018-07-25T20:32:55.058Z,94815.12
2018-07-25T20:35:23.774Z,94819.62
2018-07-25T20:37:52.448Z,94807.12
2018-07-25T20:40:21.123Z,94806.19
2018-07-25T20:42:49.903Z,94810.31
2018-07-25T20:45:18.605Z,94811.94
2018-07-25T20:47:47.269Z,94809.42
2018-07-25T20:50:15.886Z,94805.94
2018-07-25T20:52:44.596Z,94808.89
2018-07-25T20:55:14.001Z,94801.47
2018-07-25T20:57:42.652Z,94801.52
2018-07-25T21:00:11.558Z,94800.56
2018-07-25T21:02:40.242Z,94802.52
2018-07-25T21:05:08.915Z,94805.09
2018-07-25T21:07:37.595Z,94805.73
2018-07-25T21:10:06.335Z,94800.45
2018-07-25T21:12:34.945Z,94806.72
2018-07-25T21:15:03.658Z,94810.25
2018-07-25T21:17:32.639Z,94806.55
2018-07-25T21:20:01.273Z,94648.31
2018-07-25T21:22:29.980Z,94806.62
2018-07-25T21:24:58.635Z,94814.72
2018-07-25T21:27:27.210Z,94803.78
2018-07-25T21:29:55.835Z,94810.20
2018-07-25T21:32:24.863Z,94808.25
2018-07-25T21:34:53.517Z,94814.72
2018-07-25T21:37:22.139Z,94809.24
2018-07-25T21:39:50.827Z,94806.72
2018-07-25T21:42:19.510Z,94802.45
2018-07-25T21:44:48.158Z,94799.52
2018-07-25T21:47:16.759Z,94796.24
2018-07-25T21:49:45.446Z,94797.65
2018-07-25T21:52:14.106Z,94807.81
2018-07-25T21:54:42.814Z,94802.95
2018-07-25T21:57:11.501Z,94800.02
2018-07-25T21:59:40.195Z,94791.41
2018-07-25T22:02:09.172Z,94787.72
2018-07-25T22:04:38.115Z,94790.45
2018-07-25T22:07:06.883Z,94796.50
2018-07-25T22:09:35.513Z,94788.30
2018-07-25T22:12:04.133Z,94791.08
2018-07-25T22:14:32.842Z,94789.13
2018-07-25T22:17:01.470Z,94802.63
2018-07-25T22:19:30.110Z,94801.09
2018-07-25T22:21:58.787Z,94803.21
2018-07-25T22:24:27.688Z,94801.05
2018-07-25T22:26:56.348Z,94800.68
2018-07-25T22:29:25.096Z,94795.97
2018-07-25T22:31:54.099Z,94800.52
2018-07-25T22:34:23.011Z,94794.66
2018-07-25T22:36:51.892Z,94788.23
2018-07-25T22:39:20.574Z,94789.98
2018-07-25T22:41:49.218Z,94789.61
2018-07-25T22:44:18.111Z,94799.58
2018-07-25T22:46:46.739Z,94795.86
2018-07-25T22:49:15.362Z,94792.14
2018-07-25T22:51:44.275Z,94791.14
2018-07-25T22:54:13.222Z,94794.42
2018-07-25T22:56:42.005Z,94800.68
2018-07-25T22:59:10.647Z,94803.21
2018-07-25T23:01:39.536Z,94803.20
2018-07-25T23:04:08.158Z,94801.84
2018-07-25T23:06:36.783Z,94799.89
2018-07-25T23:09:08.171Z,94802.08
2018-07-25T23:11:36.864Z,94799.14
2018-07-25T23:14:05.572Z,94803.07
2018-07-25T23:16:34.263Z,94807.41
2018-07-25T23:19:02.890Z,94803.86
2018-07-25T23:21:31.485Z,94806.56
2018-07-25T23:24:00.156Z,94800.71
2018-07-25T23:26:28.859Z,94802.66
2018-07-25T23:28:57.523Z,94796.81
2018-07-25T23:31:26.249Z,94802.90
2018-07-25T23:33:54.903Z,94809.36
2018-07-25T23:36:23.832Z,94809.73
2018-07-25T23:38:52.479Z,94802.29
2018-07-25T23:41:21.111Z,94802.49
2018-07-25T23:43:49.751Z,94800.78
2018-07-25T23:46:18.824Z,94801.94
2018-07-25T23:48:47.415Z,94808.02
2018-07-25T23:51:16.081Z,94809.01
2018-07-25T23:53:45.371Z,94811.16
2018-07-25T23:56:14.075Z,94821.72
2018-07-25T23:58:42.781Z,94825.20
